Aviation Digital Data Service (ADDS)

Output produced by METARs form (1207 UTC 18 November 2017)
found at http://aviationweather.gov/adds/metars/
 
KARA 181153Z 20006KT 10SM CLR 20/18 A2988 RMK AO2 SLP119 T02000178 10211 20200 56007